Time;durP1;ratioP1;P1;durP2;ratioP2;P2;SDS_P1;SDS_P2;PMS_P1;PMS_P2;Temp;Humidity;BMP_temperature;BMP_pressure;BME280_temperature;BME280_humidity;BME280_pressure;Samples;Min_cycle;Max_cycle;Signal;HPM_P1;HPM_P2
2023/07/09 00:00:02;;;;;;;3.98;3.58;;;23.10;53.50;;;;;;866844;160;27549;-71
2023/07/09 00:02:29;;;;;;;3.87;3.33;;;23.10;53.60;;;;;;863552;163;27557;-71
2023/07/09 00:04:55;;;;;;;3.40;3.10;;;23.10;53.90;;;;;;864007;163;27452;-71
2023/07/09 00:07:28;;;;;;;3.80;3.50;;;23.00;54.00;;;;;;864097;163;27481;-71
2023/07/09 00:09:54;;;;;;;4.40;3.52;;;22.90;54.10;;;;;;863852;163;27572;-71
2023/07/09 00:12:21;;;;;;;3.83;3.42;;;22.90;54.30;;;;;;864224;163;27451;-71
2023/07/09 00:14:47;;;;;;;4.42;3.80;;;22.90;54.50;;;;;;866757;164;27442;-71
2023/07/09 00:17:26;;;;;;;3.75;3.45;;;22.90;54.70;;;;;;864498;163;27419;-71
2023/07/09 00:19:53;;;;;;;3.95;3.35;;;22.90;54.80;;;;;;864052;162;27424;-71
2023/07/09 00:22:19;;;;;;;3.90;3.60;;;22.80;54.80;;;;;;863917;163;27450;-71
2023/07/09 00:24:52;;;;;;;6.10;3.83;;;22.80;55.00;;;;;;863953;163;27508;-71
2023/07/09 00:27:18;;;;;;;3.92;3.52;;;22.80;55.20;;;;;;863870;163;27530;-71
2023/07/09 00:29:45;;;;;;;4.12;3.60;;;22.80;55.30;;;;;;864918;162;27529;-71
2023/07/09 00:32:11;;;;;;;5.80;3.72;;;22.80;55.40;;;;;;864511;162;27429;-71
2023/07/09 00:34:38;;;;;;;3.77;3.05;;;22.70;55.50;;;;;;863569;162;27492;-72
2023/07/09 00:37:05;;;;;;;3.77;3.37;;;22.70;55.60;;;;;;864552;162;27462;-71
2023/07/09 00:39:31;;;;;;;3.50;2.90;;;22.70;55.80;;;;;;863882;163;27641;-71
2023/07/09 00:41:58;;;;;;;4.17;3.10;;;22.70;55.90;;;;;;863806;163;27368;-71
2023/07/09 00:44:31;;;;;;;3.70;3.22;;;22.60;56.00;;;;;;863957;163;27627;-71
2023/07/09 00:47:03;;;;;;;4.70;3.20;;;22.60;56.20;;;;;;863418;163;27462;-71
2023/07/09 00:49:35;;;;;;;3.52;3.20;;;22.60;56.30;;;;;;863135;163;27641;-71
2023/07/09 00:52:02;;;;;;;3.55;3.25;;;22.60;56.30;;;;;;864012;163;27449;-71
2023/07/09 00:54:37;;;;;;;3.50;3.00;;;22.50;56.30;;;;;;863868;163;27638;-71
2023/07/09 00:57:12;;;;;;;3.20;2.90;;;22.50;56.50;;;;;;864661;162;27395;-71
2023/07/09 00:59:39;;;;;;;3.87;3.20;;;22.40;56.50;;;;;;865947;163;27552;-71
2023/07/09 01:02:05;;;;;;;4.37;3.50;;;22.40;56.70;;;;;;873378;161;27400;-71
2023/07/09 01:04:32;;;;;;;3.77;3.40;;;22.30;56.80;;;;;;874267;162;27565;-71
2023/07/09 01:06:59;;;;;;;5.12;3.60;;;22.30;57.00;;;;;;874664;160;27911;-71
2023/07/09 01:09:25;;;;;;;4.25;3.47;;;22.30;57.60;;;;;;874259;160;27505;-71
2023/07/09 01:11:56;;;;;;;3.83;3.50;;;22.20;57.30;;;;;;873450;160;27415;-72
2023/07/09 01:14:19;;;;;;;4.95;3.27;;;22.20;57.30;;;;;;873319;163;27627;-71
2023/07/09 01:16:48;;;;;;;4.25;3.12;;;22.20;57.50;;;;;;874149;163;27455;-71
2023/07/09 01:19:16;;;;;;;3.70;3.40;;;22.10;57.50;;;;;;870960;163;27577;-71
2023/07/09 01:21:41;;;;;;;3.67;3.37;;;22.10;57.70;;;;;;874126;160;27498;-71
2023/07/09 01:24:10;;;;;;;4.17;3.80;;;22.10;57.80;;;;;;874677;160;27439;-71
2023/07/09 01:26:38;;;;;;;4.00;3.33;;;22.10;58.00;;;;;;874072;163;27486;-71
2023/07/09 01:29:03;;;;;;;4.20;3.50;;;22.00;58.00;;;;;;873959;162;27436;-71
2023/07/09 01:31:30;;;;;;;3.30;3.08;;;22.00;58.10;;;;;;873828;160;27547;-71
2023/07/09 01:33:57;;;;;;;3.90;3.40;;;22.00;58.20;;;;;;874021;160;27576;-71
2023/07/09 01:36:23;;;;;;;3.58;3.27;;;21.90;58.50;;;;;;874402;162;27435;-71
2023/07/09 01:38:50;;;;;;;3.65;3.33;;;21.90;58.70;;;;;;874693;161;27488;-71
2023/07/09 01:41:16;;;;;;;3.90;3.52;;;21.90;58.80;;;;;;874100;160;27352;-71
2023/07/09 01:43:43;;;;;;;4.67;3.22;;;21.90;58.90;;;;;;874784;160;27510;-72
2023/07/09 01:46:10;;;;;;;5.47;3.67;;;21.90;59.00;;;;;;874323;161;27470;-71
2023/07/09 01:48:42;;;;;;;3.85;3.50;;;21.80;59.20;;;;;;874050;162;27426;-71
2023/07/09 01:51:11;;;;;;;4.15;3.37;;;21.80;59.20;;;;;;874826;160;27392;-71
2023/07/09 01:53:38;;;;;;;4.58;3.60;;;21.80;59.20;;;;;;874468;160;27454;-71
2023/07/09 01:56:07;;;;;;;4.53;3.37;;;21.70;59.40;;;;;;873871;161;27459;-71
2023/07/09 01:58:31;;;;;;;4.03;3.58;;;21.70;59.50;;;;;;873916;160;27420;-71
2023/07/09 02:00:58;;;;;;;4.10;3.15;;;21.70;59.50;;;;;;874129;159;27487;-71
2023/07/09 02:03:24;;;;;;;3.30;2.92;;;21.70;59.60;;;;;;874130;160;27516;-72
2023/07/09 02:05:51;;;;;;;4.35;3.72;;;21.60;59.60;;;;;;874463;161;27463;-71
2023/07/09 02:08:17;;;;;;;4.08;3.35;;;21.60;59.70;;;;;;873024;161;27508;-71
2023/07/09 02:10:44;;;;;;;3.47;3.17;;;21.60;59.80;;;;;;873136;160;27509;-71
2023/07/09 02:13:11;;;;;;;3.80;3.27;;;21.50;59.90;;;;;;873210;160;27421;-71
2023/07/09 02:15:37;;;;;;;4.00;3.60;;;21.50;60.00;;;;;;873456;160;27457;-71
2023/07/09 02:18:04;;;;;;;3.85;3.50;;;21.50;60.10;;;;;;874401;160;27444;-71
2023/07/09 02:20:30;;;;;;;3.58;3.27;;;21.40;60.10;;;;;;874313;160;27400;-71
2023/07/09 02:22:57;;;;;;;5.42;3.85;;;21.40;60.30;;;;;;874386;162;27809;-71
2023/07/09 02:25:23;;;;;;;4.75;3.42;;;21.30;60.40;;;;;;874832;160;27830;-71
2023/07/09 02:27:50;;;;;;;4.35;3.60;;;21.30;60.50;;;;;;874380;160;27957;-71
2023/07/09 02:30:17;;;;;;;7.05;3.62;;;21.30;60.60;;;;;;874350;160;27476;-71
2023/07/09 02:32:43;;;;;;;4.78;3.40;;;21.20;60.70;;;;;;874557;160;27423;-71
2023/07/09 02:35:10;;;;;;;4.20;3.75;;;21.20;60.90;;;;;;874885;162;27506;-71
2023/07/09 02:37:36;;;;;;;5.40;3.90;;;21.20;61.10;;;;;;873921;161;27516;-71
2023/07/09 02:40:03;;;;;;;4.28;3.60;;;21.10;61.20;;;;;;874091;161;27471;-70
2023/07/09 02:42:30;;;;;;;3.90;3.50;;;21.10;61.30;;;;;;874269;161;27455;-71
2023/07/09 02:44:56;;;;;;;3.47;3.17;;;21.00;61.40;;;;;;874555;162;27445;-71
2023/07/09 02:47:23;;;;;;;3.95;3.17;;;21.00;61.50;;;;;;874041;162;27503;-71
2023/07/09 02:49:49;;;;;;;3.98;3.52;;;21.00;61.80;;;;;;874631;160;27455;-71
2023/07/09 02:52:16;;;;;;;5.17;3.45;;;20.90;61.80;;;;;;873861;161;28076;-71
2023/07/09 02:54:43;;;;;;;4.25;3.85;;;20.90;62.10;;;;;;874324;160;27431;-71
2023/07/09 02:57:09;;;;;;;5.03;3.30;;;20.90;62.40;;;;;;873701;160;27349;-71
2023/07/09 02:59:41;;;;;;;4.17;3.67;;;20.80;62.50;;;;;;874139;160;27451;-74
2023/07/09 03:02:05;;;;;;;4.10;3.67;;;20.80;62.70;;;;;;873341;160;27498;-73
2023/07/09 03:04:32;;;;;;;3.98;3.58;;;20.80;62.80;;;;;;874080;160;27511;-73
2023/07/09 03:06:59;;;;;;;5.92;3.95;;;20.70;62.80;;;;;;874447;161;27518;-73
2023/07/09 03:09:25;;;;;;;5.35;4.25;;;20.70;63.10;;;;;;874619;162;27778;-73
2023/07/09 03:11:52;;;;;;;3.85;3.37;;;20.70;63.20;;;;;;874153;160;27905;-73
2023/07/09 03:14:18;;;;;;;5.12;3.83;;;20.70;63.50;;;;;;874377;160;27368;-73
2023/07/09 03:16:45;;;;;;;4.97;3.92;;;20.60;63.80;;;;;;874395;162;27510;-73
2023/07/09 03:19:11;;;;;;;4.37;3.95;;;20.60;64.00;;;;;;874480;162;27456;-73
2023/07/09 03:21:38;;;;;;;4.60;4.00;;;20.60;64.10;;;;;;874311;160;27482;-73
2023/07/09 03:24:05;;;;;;;4.17;3.75;;;20.60;64.30;;;;;;874918;160;27534;-73
2023/07/09 03:26:31;;;;;;;4.53;3.55;;;20.50;64.40;;;;;;873446;160;27344;-73
2023/07/09 03:28:58;;;;;;;4.97;4.15;;;20.50;64.70;;;;;;873918;161;27422;-74
2023/07/09 03:31:24;;;;;;;5.65;4.12;;;20.50;64.90;;;;;;873582;160;27561;-73
2023/07/09 03:33:51;;;;;;;4.33;3.92;;;20.50;65.00;;;;;;874281;160;27506;-73
2023/07/09 03:36:19;;;;;;;3.80;3.50;;;20.50;65.00;;;;;;874577;160;27453;-73
2023/07/09 03:38:44;;;;;;;4.50;4.10;;;20.50;65.10;;;;;;874196;160;27547;-73
2023/07/09 03:41:11;;;;;;;4.37;3.98;;;20.50;65.30;;;;;;874004;160;27375;-73
2023/07/09 03:43:37;;;;;;;4.10;3.70;;;20.50;65.30;;;;;;873736;161;27451;-73
2023/07/09 03:46:04;;;;;;;4.90;3.80;;;20.50;65.40;;;;;;874341;162;27783;-73
2023/07/09 03:48:30;;;;;;;5.50;4.03;;;20.50;65.70;;;;;;874365;163;27420;-73
2023/07/09 03:50:57;;;;;;;3.80;3.50;;;20.50;65.80;;;;;;874065;160;27474;-73
2023/07/09 03:53:24;;;;;;;4.40;4.00;;;20.50;66.00;;;;;;874227;162;27368;-73
2023/07/09 03:55:53;;;;;;;4.97;4.28;;;20.50;66.00;;;;;;874546;163;27611;-73
2023/07/09 03:58:20;;;;;;;5.28;4.10;;;20.60;66.20;;;;;;873836;163;27443;-73
2023/07/09 04:00:47;;;;;;;5.33;4.47;;;20.60;66.20;;;;;;873427;160;27434;-73
2023/07/09 04:03:13;;;;;;;5.30;4.25;;;20.70;66.40;;;;;;873953;161;27520;-73
2023/07/09 04:05:40;;;;;;;4.42;4.03;;;20.70;66.30;;;;;;873500;161;27512;-73
2023/07/09 04:08:06;;;;;;;4.53;4.10;;;20.80;66.40;;;;;;873716;162;27475;-73
2023/07/09 04:10:33;;;;;;;4.45;3.87;;;20.80;66.40;;;;;;873453;161;27526;-73
2023/07/09 04:13:00;;;;;;;4.50;4.10;;;20.90;66.50;;;;;;873666;161;27513;-73
2023/07/09 04:15:26;;;;;;;4.50;4.10;;;21.00;66.60;;;;;;873293;161;27404;-73
2023/07/09 04:17:53;;;;;;;4.10;3.70;;;21.00;66.50;;;;;;874150;161;27463;-73
2023/07/09 04:20:19;;;;;;;4.37;3.98;;;21.10;66.50;;;;;;873204;161;27447;-73
2023/07/09 04:22:46;;;;;;;4.62;4.22;;;21.20;66.50;;;;;;873377;161;27408;-73
2023/07/09 04:25:13;;;;;;;4.40;4.00;;;21.30;66.50;;;;;;873450;161;27438;-73
2023/07/09 04:27:39;;;;;;;4.30;3.83;;;21.40;66.50;;;;;;873168;161;27539;-73
2023/07/09 04:30:06;;;;;;;4.65;4.10;;;21.40;66.50;;;;;;873148;161;27879;-73
2023/07/09 04:32:32;;;;;;;4.70;4.30;;;21.50;66.40;;;;;;872825;161;27443;-73
2023/07/09 04:34:59;;;;;;;5.25;3.98;;;21.60;66.40;;;;;;872654;161;27451;-75
2023/07/09 04:37:26;;;;;;;4.60;3.58;;;21.70;66.30;;;;;;873374;160;27482;-75
2023/07/09 04:39:52;;;;;;;6.08;4.33;;;21.80;66.40;;;;;;872977;162;27526;-75
2023/07/09 04:42:19;;;;;;;4.30;3.90;;;21.90;66.30;;;;;;873871;161;27540;-75
2023/07/09 04:44:46;;;;;;;4.37;4.00;;;22.00;66.20;;;;;;873535;161;27404;-75
2023/07/09 04:47:12;;;;;;;5.00;4.03;;;22.10;66.00;;;;;;872808;161;27435;-75
2023/07/09 04:49:39;;;;;;;5.15;4.05;;;22.20;65.90;;;;;;872960;161;27451;-76
2023/07/09 04:52:05;;;;;;;4.08;3.67;;;22.30;65.80;;;;;;873260;161;27447;-76
2023/07/09 04:54:32;;;;;;;4.30;3.90;;;22.40;65.70;;;;;;873284;163;27345;-76
2023/07/09 04:56:59;;;;;;;4.28;3.87;;;22.60;65.70;;;;;;873249;163;27525;-76
2023/07/09 04:59:25;;;;;;;4.87;3.83;;;22.70;65.60;;;;;;873171;163;27558;-75
2023/07/09 05:01:52;;;;;;;4.33;3.92;;;22.90;65.60;;;;;;873544;161;27536;-75
2023/07/09 05:04:18;;;;;;;4.45;4.05;;;23.10;65.80;;;;;;873265;163;27844;-76
2023/07/09 05:06:45;;;;;;;4.25;3.80;;;23.30;66.00;;;;;;873552;160;27436;-76
2023/07/09 05:09:12;;;;;;;4.33;4.03;;;23.60;66.20;;;;;;874931;160;27416;-76
2023/07/09 05:11:38;;;;;;;3.58;3.27;;;24.00;66.30;;;;;;873987;160;27439;-76
2023/07/09 05:14:05;;;;;;;4.35;3.95;;;24.50;66.30;;;;;;874284;160;27448;-76
2023/07/09 05:16:31;;;;;;;4.97;4.05;;;25.00;65.90;;;;;;874587;162;27424;-76
2023/07/09 05:18:58;;;;;;;4.33;3.92;;;25.60;65.40;;;;;;872460;161;27417;-76
2023/07/09 05:21:24;;;;;;;4.55;3.83;;;26.20;64.60;;;;;;874033;160;27377;-76
2023/07/09 05:23:51;;;;;;;4.30;3.90;;;26.80;63.90;;;;;;874594;160;27590;-76
2023/07/09 05:26:18;;;;;;;4.30;3.92;;;27.40;62.90;;;;;;873882;160;27443;-76
2023/07/09 05:28:44;;;;;;;4.30;3.65;;;28.00;61.90;;;;;;873679;163;27443;-76
2023/07/09 05:31:11;;;;;;;4.50;3.75;;;28.60;60.90;;;;;;874188;160;27495;-76
2023/07/09 05:33:37;;;;;;;4.00;3.65;;;29.20;60.00;;;;;;873655;163;27464;-76
2023/07/09 05:36:04;;;;;;;3.98;3.58;;;29.70;59.90;;;;;;874051;160;27439;-76
2023/07/09 05:38:31;;;;;;;4.03;3.72;;;30.30;58.50;;;;;;874200;160;27400;-76
2023/07/09 05:41:03;;;;;;;4.20;3.75;;;30.90;57.80;;;;;;873402;160;27575;-76
2023/07/09 05:43:29;;;;;;;3.85;3.42;;;31.40;57.00;;;;;;874130;161;27525;-76
2023/07/09 05:45:56;;;;;;;3.65;3.35;;;32.00;56.30;;;;;;874696;162;27468;-76
2023/07/09 05:48:23;;;;;;;4.62;3.87;;;32.50;55.60;;;;;;873635;160;27556;-76
2023/07/09 05:50:49;;;;;;;3.60;3.30;;;33.10;54.70;;;;;;874751;160;27460;-76
2023/07/09 05:53:16;;;;;;;3.62;3.33;;;33.70;53.80;;;;;;874016;161;26424;-76
2023/07/09 05:55:42;;;;;;;4.55;3.62;;;34.20;53.00;;;;;;874354;160;27452;-76
2023/07/09 05:58:09;;;;;;;3.65;3.35;;;34.70;52.10;;;;;;874305;160;26357;-76
2023/07/09 06:00:37;;;;;;;3.67;3.37;;;35.10;51.30;;;;;;874192;160;27529;-76
2023/07/09 06:03:03;;;;;;;3.55;3.25;;;35.60;50.30;;;;;;874913;160;26386;-76
2023/07/09 06:05:29;;;;;;;3.92;3.27;;;36.00;49.70;;;;;;874368;162;26303;-76
2023/07/09 06:07:55;;;;;;;3.52;3.22;;;36.30;49.00;;;;;;874435;162;26361;-76
2023/07/09 06:10:22;;;;;;;3.50;3.20;;;36.80;48.50;;;;;;874477;160;26452;-77
2023/07/09 06:12:49;;;;;;;3.70;3.40;;;37.10;47.80;;;;;;874812;162;26271;-77
2023/07/09 06:15:15;;;;;;;3.47;3.17;;;37.50;47.10;;;;;;874071;160;26432;-76
2023/07/09 06:17:42;;;;;;;4.22;3.60;;;37.90;46.70;;;;;;873729;160;26347;-77
2023/07/09 06:20:08;;;;;;;3.67;3.10;;;38.20;46.30;;;;;;874604;163;26444;-77
2023/07/09 06:22:35;;;;;;;3.52;3.22;;;38.60;45.70;;;;;;873824;160;26342;-77
2023/07/09 06:25:02;;;;;;;3.67;3.37;;;39.10;45.00;;;;;;874117;162;26378;-77
2023/07/09 06:27:28;;;;;;;3.42;3.12;;;39.50;44.30;;;;;;874438;162;26345;-77
2023/07/09 06:29:55;;;;;;;3.40;3.15;;;39.90;43.50;;;;;;874584;163;26365;-77
2023/07/09 06:32:21;;;;;;;3.65;3.35;;;40.20;43.40;;;;;;874598;160;26366;-77
2023/07/09 06:34:48;;;;;;;3.62;3.12;;;40.50;42.10;;;;;;873433;160;26476;-76
2023/07/09 06:37:15;;;;;;;3.90;3.47;;;40.70;41.60;;;;;;874197;160;26432;-77
2023/07/09 06:39:41;;;;;;;4.08;3.60;;;41.00;41.20;;;;;;874409;163;26395;-76
2023/07/09 06:42:08;;;;;;;3.58;3.27;;;41.30;40.70;;;;;;874153;160;26361;-76
2023/07/09 06:44:34;;;;;;;3.47;3.17;;;41.60;40.20;;;;;;874854;161;26334;-77
2023/07/09 06:47:01;;;;;;;7.20;3.40;;;41.80;39.90;;;;;;874356;160;26327;-77
2023/07/09 06:49:28;;;;;;;3.72;3.42;;;42.10;39.60;;;;;;873673;160;26291;-77
2023/07/09 06:51:54;;;;;;;5.58;3.45;;;42.40;39.00;;;;;;874224;161;26358;-77
2023/07/09 06:54:21;;;;;;;4.92;2.95;;;42.70;38.60;;;;;;873884;160;26356;-77
2023/07/09 06:56:47;;;;;;;3.17;2.87;;;43.10;38.20;;;;;;874092;163;26384;-77
2023/07/09 06:59:14;;;;;;;3.15;2.90;;;43.40;37.80;;;;;;874574;161;26346;-77
2023/07/09 07:01:40;;;;;;;3.95;3.12;;;43.80;37.30;;;;;;874000;160;26341;-77
2023/07/09 07:04:07;;;;;;;3.25;2.98;;;44.20;36.80;;;;;;874227;161;26404;-78
2023/07/09 07:06:34;;;;;;;6.47;3.02;;;44.60;36.50;;;;;;872987;161;26695;-78
2023/07/09 07:09:00;;;;;;;3.00;2.80;;;44.90;35.50;;;;;;873440;161;26456;-78
2023/07/09 07:11:29;;;;;;;3.30;3.00;;;45.20;35.00;;;;;;872467;161;26432;-78
2023/07/09 07:13:54;;;;;;;7.20;3.55;;;45.40;34.60;;;;;;872855;161;26354;-78
2023/07/09 07:16:20;;;;;;;3.77;3.02;;;45.60;34.20;;;;;;872802;162;26432;-78
2023/07/09 07:18:47;;;;;;;3.35;3.05;;;45.80;33.80;;;;;;873277;161;26318;-78
2023/07/09 07:21:13;;;;;;;5.25;3.00;;;46.10;33.50;;;;;;874049;160;26382;-78
2023/07/09 07:23:40;;;;;;;4.03;3.15;;;46.30;33.20;;;;;;873398;163;26290;-78
2023/07/09 07:26:06;;;;;;;2.95;2.75;;;46.60;32.90;;;;;;872935;163;26378;-78
2023/07/09 07:28:33;;;;;;;4.00;2.90;;;46.90;32.40;;;;;;872971;161;26391;-78
2023/07/09 07:31:00;;;;;;;2.70;2.50;;;47.30;31.90;;;;;;873007;161;26364;-78
2023/07/09 07:33:26;;;;;;;3.00;2.75;;;47.60;31.40;;;;;;873143;161;26311;-78
2023/07/09 07:35:53;;;;;;;2.85;2.60;;;47.90;31.10;;;;;;872874;161;26435;-78
2023/07/09 07:38:19;;;;;;;3.00;2.27;;;48.20;30.80;;;;;;873125;161;26342;-78
2023/07/09 07:40:46;;;;;;;5.62;2.95;;;48.50;30.40;;;;;;872868;161;26354;-78
2023/07/09 07:43:13;;;;;;;2.77;2.58;;;48.80;30.10;;;;;;873139;161;26350;-78
2023/07/09 07:45:42;;;;;;;4.20;2.60;;;49.20;29.70;;;;;;873245;161;26400;-78
2023/07/09 07:48:09;;;;;;;3.35;2.40;;;49.40;29.30;;;;;;873056;161;26366;-78
2023/07/09 07:50:36;;;;;;;2.77;2.55;;;49.70;29.20;;;;;;873050;161;26399;-78
2023/07/09 07:53:02;;;;;;;2.87;2.67;;;50.00;28.70;;;;;;873249;163;26344;-78
2023/07/09 07:55:28;;;;;;;2.80;2.60;;;50.20;28.50;;;;;;872263;161;26378;-78
2023/07/09 07:57:56;;;;;;;2.60;2.40;;;50.40;28.30;;;;;;873341;162;26366;-78
2023/07/09 08:00:22;;;;;;;2.70;2.50;;;50.60;28.30;;;;;;872887;161;26362;-78
2023/07/09 08:02:48;;;;;;;4.15;2.75;;;50.90;28.10;;;;;;873414;163;26397;-78
2023/07/09 08:05:15;;;;;;;2.15;2.05;;;51.10;27.70;;;;;;873865;162;26386;-78
2023/07/09 08:07:41;;;;;;;3.77;2.70;;;51.40;27.40;;;;;;874831;163;26447;-78
2023/07/09 08:10:08;;;;;;;2.95;2.70;;;51.60;27.40;;;;;;867882;162;26475;-79
2023/07/09 08:12:35;;;;;;;3.08;2.72;;;51.80;27.10;;;;;;873989;161;26432;-78
2023/07/09 08:15:01;;;;;;;2.65;2.40;;;52.00;26.80;;;;;;874356;162;26322;-79
2023/07/09 08:17:28;;;;;;;2.95;2.65;;;52.30;26.80;;;;;;874587;162;26364;-79
2023/07/09 08:19:54;;;;;;;2.60;2.37;;;52.50;26.90;;;;;;873986;160;26333;-79
2023/07/09 08:22:21;;;;;;;2.67;2.47;;;52.50;26.10;;;;;;874616;160;26369;-79
2023/07/09 08:24:51;;;;;;;3.40;2.47;;;52.70;26.00;;;;;;874667;162;26340;-79
2023/07/09 08:27:17;;;;;;;2.77;2.58;;;52.80;25.90;;;;;;874199;161;26338;-77
2023/07/09 08:29:44;;;;;;;2.85;2.27;;;52.90;25.70;;;;;;874646;160;26319;-76
2023/07/09 08:32:10;;;;;;;2.67;2.47;;;53.00;25.60;;;;;;874431;160;26452;-77
2023/07/09 08:34:37;;;;;;;2.50;2.30;;;53.20;25.40;;;;;;873772;160;26389;-77
2023/07/09 08:37:03;;;;;;;2.60;2.40;;;53.30;25.30;;;;;;873926;160;26420;-76
2023/07/09 08:39:30;;;;;;;2.67;2.47;;;53.40;25.10;;;;;;874006;160;26337;-76
2023/07/09 08:42:02;;;;;;;2.80;2.37;;;53.60;25.00;;;;;;874236;160;26438;-76
2023/07/09 08:44:44;;;;;;;2.72;2.20;;;53.80;24.90;;;;;;874032;163;26420;-76
2023/07/09 08:47:13;;;;;;;3.15;2.17;;;54.10;24.70;;;;;;868271;162;26329;-77
2023/07/09 08:49:48;;;;;;;2.55;2.35;;;54.30;24.50;;;;;;873672;162;26373;-77
2023/07/09 08:52:33;;;;;;;3.80;2.60;;;54.50;24.30;;;;;;873861;160;26262;-79
2023/07/09 08:55:00;;;;;;;2.40;2.20;;;54.80;24.10;;;;;;874857;161;26329;-78
2023/07/09 08:57:26;;;;;;;2.05;1.80;;;55.00;24.10;;;;;;874675;162;26338;-79
2023/07/09 08:59:53;;;;;;;2.45;2.17;;;55.10;23.80;;;;;;873683;160;26451;-78
2023/07/09 09:02:22;;;;;;;2.12;1.92;;;55.30;23.70;;;;;;873757;160;26370;-79
2023/07/09 09:04:49;;;;;;;3.05;2.25;;;55.40;23.60;;;;;;865363;160;26383;-77
2023/07/09 09:07:15;;;;;;;2.50;2.30;;;55.50;23.40;;;;;;873307;162;26346;-78
2023/07/09 09:09:42;;;;;;;2.67;2.00;;;55.70;23.20;;;;;;872921;163;26358;-77
2023/07/09 09:12:09;;;;;;;2.33;2.12;;;55.80;22.90;;;;;;871755;161;26447;-77
2023/07/09 09:14:38;;;;;;;2.40;2.20;;;55.80;22.60;;;;;;873497;163;26373;-77
2023/07/09 09:17:04;;;;;;;2.45;2.25;;;55.80;22.50;;;;;;873532;161;26306;-77
2023/07/09 09:19:37;;;;;;;3.05;2.10;;;55.70;22.50;;;;;;872501;161;26350;-77
2023/07/09 09:22:06;;;;;;;3.20;2.17;;;55.70;22.50;;;;;;872922;161;26432;-77
2023/07/09 09:24:33;;;;;;;2.47;2.12;;;55.60;22.60;;;;;;872499;161;26263;-77
2023/07/09 09:26:59;;;;;;;2.40;2.20;;;55.50;22.60;;;;;;872310;161;26451;-77
2023/07/09 09:29:26;;;;;;;3.62;2.10;;;55.50;22.10;;;;;;872230;162;26424;-77
2023/07/09 09:31:55;;;;;;;2.22;2.02;;;55.50;22.60;;;;;;872714;161;26392;-77
2023/07/09 09:34:28;;;;;;;2.52;2.20;;;55.60;22.50;;;;;;872758;161;26396;-77
2023/07/09 09:36:54;;;;;;;3.75;2.12;;;55.60;22.40;;;;;;872867;163;26337;-77
2023/07/09 09:39:21;;;;;;;2.75;2.20;;;55.60;22.20;;;;;;873234;161;26483;-77
2023/07/09 09:41:48;;;;;;;2.47;2.05;;;55.50;22.10;;;;;;872415;161;26359;-77
2023/07/09 09:44:17;;;;;;;2.55;2.15;;;55.40;22.00;;;;;;872612;161;26436;-77
2023/07/09 09:46:44;;;;;;;2.20;2.00;;;55.30;22.10;;;;;;872757;161;26374;-77
2023/07/09 09:49:10;;;;;;;2.50;2.30;;;55.30;22.20;;;;;;874098;161;26357;-77
2023/07/09 09:51:37;;;;;;;2.65;2.08;;;55.10;22.10;;;;;;873412;161;26379;-77
2023/07/09 09:54:04;;;;;;;2.62;2.42;;;55.10;22.00;;;;;;871947;161;26236;-77
2023/07/09 09:56:30;;;;;;;2.33;2.12;;;54.90;21.90;;;;;;871707;161;26375;-77
2023/07/09 09:58:57;;;;;;;3.35;2.10;;;54.80;22.00;;;;;;872584;161;26411;-77
2023/07/09 10:01:26;;;;;;;3.30;2.17;;;54.60;21.90;;;;;;871778;161;26350;-77
2023/07/09 10:03:53;;;;;;;2.30;2.10;;;54.40;21.90;;;;;;872426;161;26798;-77
2023/07/09 10:06:19;;;;;;;2.20;2.00;;;54.10;21.80;;;;;;873442;160;26805;-76
2023/07/09 10:08:49;;;;;;;3.35;2.25;;;53.90;22.10;;;;;;872771;161;26335;-77
2023/07/09 10:11:12;;;;;;;2.55;2.35;;;53.60;22.00;;;;;;871983;161;26439;-77
2023/07/09 10:13:39;;;;;;;3.25;2.45;;;53.30;22.10;;;;;;872733;163;26402;-77
2023/07/09 10:16:36;;;;;;;2.95;2.40;;;52.90;21.90;;;;;;872134;161;26445;-77
2023/07/09 10:19:23;;;;;;;5.70;2.47;;;52.60;22.10;;;;;;873091;161;26377;-77
2023/07/09 10:22:06;;;;;;;4.15;2.65;;;52.20;22.30;;;;;;872737;161;26342;-77
2023/07/09 10:24:57;;;;;;;2.83;2.25;;;51.80;22.30;;;;;;873301;163;26422;-77
2023/07/09 10:27:29;;;;;;;2.70;2.27;;;51.40;22.40;;;;;;872350;161;26357;-77
2023/07/09 10:30:01;;;;;;;3.00;2.35;;;51.00;22.50;;;;;;870997;163;26332;-77
2023/07/09 10:33:06;;;;;;;2.75;2.55;;;50.50;22.70;;;;;;871309;161;26336;-77
2023/07/09 10:35:40;;;;;;;2.62;2.42;;;50.20;22.90;;;;;;872416;163;26287;-77
2023/07/09 10:38:19;;;;;;;3.83;2.67;;;49.70;23.00;;;;;;864484;161;26441;-77
2023/07/09 10:40:52;;;;;;;2.92;2.60;;;49.30;22.90;;;;;;873045;161;26368;-77
2023/07/09 10:43:36;;;;;;;3.08;2.77;;;48.90;23.00;;;;;;870809;161;26322;-77
2023/07/09 10:46:03;;;;;;;3.02;2.77;;;48.40;23.10;;;;;;872677;162;26337;-77
2023/07/09 10:48:32;;;;;;;3.42;2.80;;;47.80;23.30;;;;;;872862;163;26355;-77
2023/07/09 10:51:01;;;;;;;2.85;2.58;;;47.40;23.50;;;;;;872506;161;26358;-77
2023/07/09 10:53:56;;;;;;;3.00;2.70;;;47.00;23.70;;;;;;872653;162;26425;-77
2023/07/09 10:56:22;;;;;;;3.37;2.55;;;46.70;24.00;;;;;;872663;162;26836;-76
2023/07/09 10:59:17;;;;;;;4.17;2.62;;;46.30;24.10;;;;;;872671;161;26444;-77
2023/07/09 11:01:43;;;;;;;2.62;2.42;;;46.10;24.40;;;;;;872679;161;26338;-77
2023/07/09 11:04:28;;;;;;;2.77;2.55;;;45.70;24.30;;;;;;872954;161;26366;-77
2023/07/09 11:06:54;;;;;;;8.80;2.47;;;45.40;24.40;;;;;;872318;162;26505;-77
2023/07/09 11:09:24;;;;;;;5.05;3.00;;;45.10;24.60;;;;;;872888;163;26322;-77
2023/07/09 11:11:50;;;;;;;2.90;2.70;;;44.80;24.90;;;;;;873353;163;26302;-77
2023/07/09 11:14:26;;;;;;;3.17;2.87;;;44.60;24.90;;;;;;874218;163;26354;-77
2023/07/09 11:16:52;;;;;;;3.47;2.77;;;44.30;25.10;;;;;;874053;163;26326;-77
2023/07/09 11:19:19;;;;;;;3.75;2.55;;;44.10;25.30;;;;;;873384;163;26338;-77
2023/07/09 11:21:59;;;;;;;2.72;2.52;;;43.90;25.50;;;;;;872818;161;26290;-77
2023/07/09 11:24:30;;;;;;;3.40;2.90;;;43.80;25.40;;;;;;873923;161;26373;-77
2023/07/09 11:26:59;;;;;;;3.22;2.65;;;43.60;25.40;;;;;;872616;163;26318;-77
2023/07/09 11:29:23;;;;;;;3.50;2.22;;;43.50;25.60;;;;;;873850;162;27418;-77
2023/07/09 11:31:49;;;;;;;2.37;2.27;;;43.30;25.60;;;;;;874679;163;26416;-76
2023/07/09 11:34:19;;;;;;;5.83;2.60;;;43.20;25.70;;;;;;874621;161;26410;-77
2023/07/09 11:36:51;;;;;;;3.55;2.62;;;43.00;25.80;;;;;;873816;163;26485;-77
2023/07/09 11:39:18;;;;;;;3.00;2.75;;;42.90;25.80;;;;;;873753;162;27464;-77
2023/07/09 11:41:46;;;;;;;2.65;2.45;;;42.70;25.70;;;;;;874020;163;26406;-76
2023/07/09 11:44:20;;;;;;;3.20;2.62;;;42.60;25.90;;;;;;874214;163;26350;-77
2023/07/09 11:46:53;;;;;;;2.55;2.35;;;42.50;25.90;;;;;;874423;163;26476;-77
2023/07/09 11:49:19;;;;;;;2.52;2.33;;;42.40;26.00;;;;;;873361;163;26327;-77
2023/07/09 11:51:46;;;;;;;4.03;2.60;;;42.30;26.00;;;;;;874073;163;26335;-76
2023/07/09 11:54:13;;;;;;;2.80;2.58;;;42.20;26.00;;;;;;873092;163;26365;-77
2023/07/09 11:56:39;;;;;;;2.90;2.60;;;42.10;26.10;;;;;;874263;162;26337;-77
2023/07/09 11:59:05;;;;;;;3.22;2.30;;;42.00;26.30;;;;;;873608;163;26319;-77
2023/07/09 12:01:35;;;;;;;2.65;2.45;;;42.00;26.20;;;;;;873927;163;27515;-77
2023/07/09 12:04:01;;;;;;;2.90;2.70;;;41.90;26.40;;;;;;874326;161;26366;-77
2023/07/09 12:06:28;;;;;;;5.20;2.92;;;41.80;26.20;;;;;;870937;163;27859;-76
2023/07/09 12:08:54;;;;;;;2.75;2.55;;;41.70;26.10;;;;;;873951;162;26492;-76
2023/07/09 12:11:21;;;;;;;3.00;2.70;;;41.60;26.30;;;;;;872754;162;26423;-76
2023/07/09 12:13:48;;;;;;;2.35;2.17;;;41.40;26.40;;;;;;872445;162;26342;-76
2023/07/09 12:16:23;;;;;;;2.55;2.30;;;41.30;26.40;;;;;;872588;162;26431;-76
2023/07/09 12:18:50;;;;;;;3.37;2.77;;;41.20;26.50;;;;;;872385;161;26350;-76
2023/07/09 12:21:16;;;;;;;3.00;2.70;;;41.00;26.60;;;;;;872370;162;27441;-76
2023/07/09 12:23:43;;;;;;;3.12;2.83;;;41.00;26.80;;;;;;872686;161;26347;-76
2023/07/09 12:26:12;;;;;;;2.52;2.33;;;40.90;26.80;;;;;;872735;162;26350;-76
2023/07/09 12:28:39;;;;;;;3.60;2.85;;;40.80;27.00;;;;;;871985;163;28845;-76
2023/07/09 12:31:06;;;;;;;3.37;3.08;;;40.80;27.30;;;;;;872281;161;26420;-76
2023/07/09 12:33:32;;;;;;;4.45;2.95;;;40.80;27.30;;;;;;871232;162;26375;-76
2023/07/09 12:35:59;;;;;;;3.00;2.70;;;40.80;27.50;;;;;;872836;161;27460;-76
2023/07/09 12:38:25;;;;;;;3.60;2.62;;;40.70;27.30;;;;;;872423;161;26360;-76
2023/07/09 12:40:52;;;;;;;3.45;2.70;;;40.70;27.20;;;;;;872414;161;27587;-76
2023/07/09 12:43:27;;;;;;;3.17;2.70;;;40.70;27.30;;;;;;871725;161;26342;-76
2023/07/09 12:45:53;;;;;;;4.67;2.98;;;40.60;27.40;;;;;;872123;162;26366;-76
2023/07/09 12:48:23;;;;;;;3.60;3.27;;;40.60;27.60;;;;;;872187;163;26442;-76
2023/07/09 12:50:50;;;;;;;4.03;2.87;;;40.60;27.60;;;;;;871925;161;27464;-76